KISW

Details ICAO KISW (ISW)
Name Alexander Fld South Wood Co
Region United States
Timezone America/Chicago (UTC-5.0)
Plans Departing 6
Arriving 9
Stats Elevation 1,021 ft / 311 m (AMSL)
Location 44.359969° -89.839476°
Runways 3
Magnetic Variation 2.564° W
Sunrise 2018-05-22 10:26:43 UTC / 2018-05-22 05:26:43 Local
Sunset 2018-05-23 01:28:14 UTC / 2018-05-22 20:28:14 Local
Advertisement - Login to hide

Runways

ID Width Length Bearing (true) Bearing (mag) Surface Threshold Offset Overrun Length
02 100 ft / 30 m 5,503 ft / 1,677 m 19.72° 22.28° Asphalt 0 ft / 0 m 0 ft / 0 m
11 50 ft / 15 m 3,633 ft / 1,107 m 115.97° 118.53° Asphalt 0 ft / 0 m 0 ft / 0 m
18 50 ft / 15 m 2,102 ft / 641 m 176.01° 178.57° Dirt 0 ft / 0 m 0 ft / 0 m
20 100 ft / 30 m 5,503 ft / 1,677 m 199.72° 202.28° Asphalt 0 ft / 0 m 100 ft / 30 m
29 50 ft / 15 m 3,633 ft / 1,107 m 295.98° 298.54° Asphalt 170 ft / 52 m 0 ft / 0 m
36 50 ft / 15 m 2,102 ft / 641 m 356.01° 358.57° Dirt 0 ft / 0 m 0 ft / 0 m

Map

Weather


0- 5 10 15 20 25 30 35+ Temperature / ° C

Clouds and Precipitation
Forecast for 2018-05-22 18:00 UTC. Updated 3 hours ago

Ground ~20,000 ft ~40,000 ft Winds

METAR

KISW 221954Z AUTO 18005KT 10SM OVC022 20/14 A3007 RMK AO2 SLP182 T02000139 TSNO

TAF

Not found

Frequencies

Recorded 126.57 MHz ASOS
Unicom 122.80 MHz CTAF/UNICOM
Warning: Do not use this data for real-world aviation or navigation. No guarantee of current accuracy is given.